Time;durP1;ratioP1;P1;durP2;ratioP2;P2;SDS_P1;SDS_P2;PMS_P1;PMS_P2;Temp;Humidity;BMP_temperature;BMP_pressure;BME280_temperature;BME280_humidity;BME280_pressure;Samples;Min_cycle;Max_cycle;Signal;HPM_P1;HPM_P2
2022/11/04 00:01:15;;;;;;;3.10;2.22;;;12.20;99.90;;;;;;5001069;28;20546;-76
2022/11/04 00:03:40;;;;;;;2.60;1.65;;;12.20;99.90;;;;;;5035417;28;20053;-77
2022/11/04 00:06:07;;;;;;;1.95;1.58;;;12.10;99.90;;;;;;5034635;28;20029;-76
2022/11/04 00:08:33;;;;;;;3.35;3.08;;;12.10;99.90;;;;;;5017368;28;20032;-77
2022/11/04 00:13:45;;;;;;;0.68;0.68;;;11.90;99.90;;;;;;5034932;28;20018;-76
2022/11/04 00:18:58;;;;;;;2.60;2.28;;;11.70;99.90;;;;;;5017024;28;20536;-76
2022/11/04 00:29:42;;;;;;;2.35;1.35;;;11.20;99.90;;;;;;5034626;28;20022;-75
2022/11/04 00:34:53;;;;;;;4.28;1.92;;;11.00;99.90;;;;;;5033788;28;20428;-76
2022/11/04 00:37:18;;;;;;;1.80;1.33;;;10.90;99.90;;;;;;5034474;28;20284;-75
2022/11/04 00:39:44;;;;;;;1.27;0.75;;;10.70;99.90;;;;;;5034461;28;20490;-75
2022/11/04 00:42:10;;;;;;;0.30;0.30;;;10.50;99.90;;;;;;5016773;28;20029;-76
2022/11/04 00:45:03;;;;;;;0.38;0.38;;;10.50;99.90;;;;;;5034280;28;20025;-76
2022/11/04 00:47:29;;;;;;;0.50;0.50;;;10.40;99.90;;;;;;5034215;28;20025;-76
2022/11/04 00:49:54;;;;;;;0.20;0.20;;;10.50;99.90;;;;;;5034279;28;20492;-76
2022/11/04 00:52:20;;;;;;;2.85;2.00;;;10.40;99.90;;;;;;5034186;28;20444;-76
2022/11/04 00:54:46;;;;;;;1.42;1.38;;;10.30;99.90;;;;;;5016353;28;20025;-76
2022/11/04 00:57:13;;;;;;;1.70;1.45;;;10.20;99.90;;;;;;5016039;28;20033;-76
2022/11/04 00:59:39;;;;;;;2.05;1.48;;;10.10;99.90;;;;;;5016334;28;20022;-76
2022/11/04 01:02:09;;;;;;;2.10;0.77;;;10.20;99.90;;;;;;5034107;28;20026;-76
2022/11/04 01:04:35;;;;;;;0.70;0.70;;;10.10;99.90;;;;;;5034042;28;20029;-76
2022/11/04 01:07:01;;;;;;;0.32;0.32;;;10.00;99.90;;;;;;4999590;28;20083;-76
2022/11/04 01:09:27;;;;;;;4.60;1.15;;;10.00;99.90;;;;;;5033872;28;20101;-77
2022/11/04 01:11:53;;;;;;;1.48;0.40;;;9.80;99.90;;;;;;5016334;28;20041;-76
2022/11/04 01:14:19;;;;;;;0.10;0.10;;;9.70;99.90;;;;;;5016087;28;20079;-77
2022/11/04 01:16:45;;;;;;;1.80;1.10;;;9.70;99.90;;;;;;5033580;28;20485;-76
2022/11/04 01:19:11;;;;;;;0.60;0.60;;;9.60;99.90;;;;;;5016059;28;20025;-75
2022/11/04 01:21:37;;;;;;;0.10;0.10;;;9.50;99.90;;;;;;5015981;28;20030;-76
2022/11/04 01:24:03;;;;;;;0.20;0.20;;;9.50;99.90;;;;;;5033639;28;20075;-79
2022/11/04 01:26:30;;;;;;;1.23;1.13;;;9.60;99.90;;;;;;4999601;28;20029;-76
2022/11/04 01:28:57;;;;;;;0.43;0.40;;;9.50;99.90;;;;;;5033537;28;20385;-75
2022/11/04 01:31:25;;;;;;;0.47;0.40;;;9.50;99.90;;;;;;4999479;28;20025;-75
2022/11/04 01:33:52;;;;;;;0.60;0.40;;;9.50;99.90;;;;;;5015603;28;20362;-75
2022/11/04 01:36:18;;;;;;;0.50;0.45;;;9.50;99.90;;;;;;5033085;28;20037;-75
2022/11/04 01:38:44;;;;;;;0.10;0.10;;;9.40;99.90;;;;;;5033298;28;20026;-75
2022/11/04 01:41:23;;;;;;;0.30;0.30;;;9.40;99.90;;;;;;5033376;28;20026;-76
2022/11/04 01:43:50;;;;;;;0.20;0.20;;;9.40;99.90;;;;;;4999208;28;20029;-75
2022/11/04 01:46:42;;;;;;;0.30;0.30;;;9.20;99.90;;;;;;5014372;28;20116;-77
2022/11/04 01:49:25;;;;;;;0.17;0.17;;;9.20;99.90;;;;;;5002492;28;20402;-76
2022/11/04 01:52:07;;;;;;;0.10;0.10;;;9.30;99.90;;;;;;5015373;28;20493;-75
2022/11/04 01:54:34;;;;;;;0.20;0.20;;;9.20;99.90;;;;;;5032988;28;20083;-76
2022/11/04 01:57:02;;;;;;;0.10;0.10;;;9.10;99.90;;;;;;5032826;28;20033;-75
2022/11/04 01:59:36;;;;;;;0.35;0.35;;;9.10;99.90;;;;;;5015100;28;20029;-76
2022/11/04 02:02:02;;;;;;;0.10;0.10;;;9.20;99.90;;;;;;5015197;28;20076;-75
2022/11/04 02:04:29;;;;;;;0.10;0.10;;;9.40;99.90;;;;;;5032867;28;20033;-76
2022/11/04 02:07:05;;;;;;;1.27;0.45;;;9.20;99.90;;;;;;4998278;28;20121;-75
2022/11/04 02:09:32;;;;;;;1.70;0.35;;;9.10;99.90;;;;;;5015106;28;20033;-75
2022/11/04 02:14:46;;;;;;;1.08;0.98;;;9.20;99.90;;;;;;5032570;28;20061;-76
2022/11/04 02:17:18;;;;;;;0.10;0.10;;;9.20;99.90;;;;;;4998471;28;20136;-75
2022/11/04 02:20:05;;;;;;;0.10;0.10;;;9.00;99.90;;;;;;5014840;28;20115;-75
2022/11/04 02:23:08;;;;;;;0.15;0.15;;;9.00;99.90;;;;;;4998525;28;20586;-76
2022/11/04 02:25:39;;;;;;;0.22;0.22;;;9.00;99.90;;;;;;5032053;28;20056;-75
2022/11/04 02:28:45;;;;;;;0.73;0.40;;;8.90;99.90;;;;;;5032438;28;20045;-75
2022/11/04 02:31:39;;;;;;;0.40;0.40;;;8.80;99.90;;;;;;5014742;28;20057;-75
2022/11/04 02:34:31;;;;;;;0.20;0.20;;;8.70;99.90;;;;;;5032383;28;20071;-75
2022/11/04 02:37:23;;;;;;;0.20;0.20;;;8.70;99.90;;;;;;5014472;28;20078;-75
2022/11/04 02:39:59;;;;;;;0.32;0.32;;;8.70;99.90;;;;;;5014838;28;20048;-75
2022/11/04 02:42:31;;;;;;;0.20;0.20;;;8.70;99.90;;;;;;5014517;28;20033;-75
2022/11/04 02:45:41;;;;;;;0.17;0.17;;;8.60;99.90;;;;;;5032074;28;20057;-75
2022/11/04 02:48:22;;;;;;;0.13;0.13;;;8.70;99.90;;;;;;4932700;29;20092;-75
2022/11/04 02:51:07;;;;;;;0.22;0.22;;;8.80;99.90;;;;;;5004077;28;20029;-76
2022/11/04 02:53:43;;;;;;;0.68;0.40;;;8.70;99.90;;;;;;5032129;28;20032;-75
2022/11/04 02:56:12;;;;;;;0.20;0.20;;;8.80;99.90;;;;;;5032000;28;20516;-76
2022/11/04 02:58:44;;;;;;;0.20;0.20;;;8.80;99.90;;;;;;5031871;28;20366;-75
2022/11/04 03:01:11;;;;;;;;;;;8.80;99.90;;;;;;5014917;28;20440;-75
2022/11/04 03:03:45;;;;;;;0.20;0.20;;;8.90;99.90;;;;;;5032073;28;19908;-75
2022/11/04 03:06:13;;;;;;;0.35;0.35;;;8.90;99.90;;;;;;5031604;28;20033;-75
2022/11/04 03:08:44;;;;;;;0.20;0.20;;;8.80;99.90;;;;;;5032066;28;20478;-76
2022/11/04 03:11:17;;;;;;;0.30;0.30;;;8.80;99.90;;;;;;5014421;28;20017;-77
2022/11/04 03:13:49;;;;;;;0.10;0.10;;;8.80;99.90;;;;;;4997859;28;20022;-75
2022/11/04 03:16:56;;;;;;;0.30;0.30;;;8.90;99.90;;;;;;5031726;28;20033;-76
2022/11/04 03:19:40;;;;;;;0.20;0.20;;;8.90;99.90;;;;;;5010663;28;20485;-76
2022/11/04 03:22:11;;;;;;;0.10;0.10;;;9.00;99.90;;;;;;5014151;28;20083;-75
2022/11/04 03:24:38;;;;;;;0.20;0.20;;;8.80;99.90;;;;;;4997772;28;20033;-75
2022/11/04 03:27:33;;;;;;;0.25;0.25;;;8.80;99.90;;;;;;5031615;28;20022;-75
2022/11/04 03:30:11;;;;;;;0.20;0.20;;;9.00;99.90;;;;;;5031821;28;20022;-75
2022/11/04 03:33:02;;;;;;;0.20;0.20;;;9.20;99.90;;;;;;5014273;28;20021;-75
2022/11/04 03:35:28;;;;;;;0.10;0.10;;;9.30;99.90;;;;;;5031684;28;20026;-75
2022/11/04 03:37:54;;;;;;;0.20;0.20;;;9.30;99.90;;;;;;5031833;28;20025;-75
2022/11/04 03:40:20;;;;;;;0.20;0.20;;;9.40;99.90;;;;;;5014221;28;20021;-75
2022/11/04 03:43:28;;;;;;;0.60;0.25;;;9.30;99.90;;;;;;4997748;28;20064;-75
2022/11/04 03:45:54;;;;;;;0.20;0.20;;;9.30;99.90;;;;;;5010237;28;20049;-75
2022/11/04 03:48:21;;;;;;;0.20;0.20;;;9.20;99.90;;;;;;5014103;28;20041;-75
2022/11/04 03:50:48;;;;;;;0.13;0.13;;;9.30;99.90;;;;;;5013996;28;20052;-76
2022/11/04 03:53:22;;;;;;;0.20;0.20;;;9.30;99.90;;;;;;5031706;28;20501;-75
2022/11/04 03:56:06;;;;;;;0.20;0.20;;;9.40;99.90;;;;;;5013931;28;20083;-75
2022/11/04 03:58:55;;;;;;;0.15;0.15;;;9.40;99.90;;;;;;5013969;28;20040;-75
2022/11/04 04:01:38;;;;;;;0.52;0.52;;;9.40;99.90;;;;;;5031653;28;20101;-75
2022/11/04 04:04:12;;;;;;;0.10;0.10;;;9.30;99.90;;;;;;5031605;28;20025;-75
2022/11/04 04:06:41;;;;;;;0.20;0.20;;;9.20;99.90;;;;;;5031182;28;20539;-75
2022/11/04 04:09:20;;;;;;;0.52;0.40;;;9.30;99.90;;;;;;5014245;28;20026;-75
2022/11/04 04:12:11;;;;;;;0.20;0.20;;;9.20;99.90;;;;;;5017376;28;20026;-75
2022/11/04 04:14:49;;;;;;;0.20;0.20;;;9.20;99.90;;;;;;5012349;28;20117;-75
2022/11/04 04:17:20;;;;;;;0.20;0.20;;;9.40;99.90;;;;;;5035082;28;20029;-75
2022/11/04 04:20:14;;;;;;;0.20;0.20;;;9.40;99.90;;;;;;5034851;28;20075;-75
2022/11/04 04:23:03;;;;;;;1.17;1.05;;;9.40;99.90;;;;;;5017241;28;20052;-75
2022/11/04 04:28:17;;;;;;;0.20;0.20;;;9.30;99.90;;;;;;5017174;28;20493;-75
2022/11/04 04:30:43;;;;;;;0.20;0.20;;;9.40;99.90;;;;;;5034618;28;20017;-76
2022/11/04 04:33:16;;;;;;;0.43;0.43;;;9.40;99.90;;;;;;5034544;28;20113;-75
2022/11/04 04:35:51;;;;;;;0.52;0.52;;;9.40;99.90;;;;;;5034332;28;20030;-77
2022/11/04 04:46:46;;;;;;;0.20;0.20;;;10.00;99.90;;;;;;5034123;28;20021;-78
2022/11/04 04:49:11;;;;;;;0.20;0.20;;;10.40;99.90;;;;;;5034327;28;20026;-78
2022/11/04 04:51:46;;;;;;;0.20;0.20;;;10.50;99.90;;;;;;5034349;28;20083;-77
2022/11/04 04:54:12;;;;;;;0.20;0.20;;;10.60;99.90;;;;;;5034260;28;20493;-77
2022/11/04 04:56:38;;;;;;;0.20;0.20;;;10.50;99.90;;;;;;5034027;28;20032;-77
2022/11/04 04:59:05;;;;;;;0.20;0.20;;;10.50;99.90;;;;;;5016536;28;20049;-77
2022/11/04 05:01:31;;;;;;;0.20;0.20;;;10.40;99.90;;;;;;5034106;28;20030;-77
2022/11/04 05:03:57;;;;;;;0.20;0.20;;;10.30;99.90;;;;;;5016401;28;20025;-77
2022/11/04 05:06:23;;;;;;;0.15;0.15;;;10.30;99.90;;;;;;5033676;28;20083;-77
2022/11/04 05:08:48;;;;;;;0.20;0.20;;;10.40;99.90;;;;;;5033958;28;20022;-77
2022/11/04 05:11:14;;;;;;;0.10;0.10;;;10.30;99.90;;;;;;5033929;28;20060;-75
2022/11/04 05:13:40;;;;;;;0.10;0.10;;;10.00;99.90;;;;;;5016136;28;20120;-75
2022/11/04 05:16:08;;;;;;;0.20;0.20;;;9.70;99.90;;;;;;5015745;28;20549;-75
2022/11/04 05:18:34;;;;;;;0.20;0.20;;;9.70;99.90;;;;;;5033787;28;20435;-75
2022/11/04 05:21:09;;;;;;;0.13;0.13;;;9.70;99.90;;;;;;5033452;28;20501;-76
2022/11/04 05:23:35;;;;;;;0.10;0.10;;;9.60;99.90;;;;;;5033619;28;20370;-77
2022/11/04 05:26:00;;;;;;;0.10;0.10;;;9.40;99.90;;;;;;5033244;28;20025;-76
2022/11/04 05:28:26;;;;;;;0.20;0.20;;;9.40;99.90;;;;;;5033600;28;20047;-76
2022/11/04 05:30:52;;;;;;;0.20;0.20;;;9.40;99.90;;;;;;5015766;28;20025;-75
2022/11/04 05:33:18;;;;;;;0.20;0.20;;;9.30;99.90;;;;;;4999423;28;20029;-75
2022/11/04 05:35:44;;;;;;;0.20;0.20;;;9.20;99.90;;;;;;5015715;28;20029;-76
2022/11/04 05:38:10;;;;;;;0.20;0.20;;;9.20;99.90;;;;;;5033282;28;20034;-76
2022/11/04 05:40:35;;;;;;;0.10;0.10;;;9.20;99.90;;;;;;5033362;28;20025;-76
2022/11/04 05:43:01;;;;;;;0.52;0.52;;;9.10;99.90;;;;;;5015452;28;20120;-76
2022/11/04 05:45:27;;;;;;;0.20;0.20;;;9.10;99.90;;;;;;5032872;28;20022;-77
2022/11/04 05:48:00;;;;;;;5.05;3.40;;;9.10;99.90;;;;;;5015195;28;20029;-77
2022/11/04 05:50:27;;;;;;;0.20;0.20;;;9.10;99.90;;;;;;5033307;28;20028;-76
2022/11/04 05:52:56;;;;;;;1.55;0.90;;;9.20;99.90;;;;;;5033107;28;20108;-76
2022/11/04 05:55:22;;;;;;;0.20;0.20;;;9.20;99.90;;;;;;5015144;28;20079;-76
2022/11/04 05:57:47;;;;;;;0.20;0.20;;;9.10;99.90;;;;;;5033019;28;20469;-76
2022/11/04 06:00:13;;;;;;;0.30;0.30;;;9.10;99.90;;;;;;5032917;28;20026;-76
2022/11/04 06:02:39;;;;;;;0.55;0.55;;;8.90;99.90;;;;;;5015188;28;20037;-76
2022/11/04 06:05:05;;;;;;;0.20;0.20;;;9.00;99.90;;;;;;5014748;28;20041;-77
2022/11/04 06:07:31;;;;;;;0.10;0.10;;;9.00;99.90;;;;;;5032605;28;20393;-77
2022/11/04 06:09:57;;;;;;;0.30;0.30;;;9.00;99.90;;;;;;4998636;28;20018;-76
2022/11/04 06:12:23;;;;;;;0.20;0.20;;;8.80;99.90;;;;;;5032409;28;20026;-77
2022/11/04 06:14:48;;;;;;;0.25;0.25;;;8.60;99.90;;;;;;5032474;28;20029;-77
2022/11/04 06:17:21;;;;;;;0.20;0.20;;;8.60;99.90;;;;;;5032421;28;20028;-78
2022/11/04 06:19:47;;;;;;;0.68;0.52;;;8.50;99.90;;;;;;5013813;28;20033;-77
2022/11/04 06:22:15;;;;;;;1.30;0.70;;;8.40;99.90;;;;;;5029380;28;20033;-76
2022/11/04 06:24:41;;;;;;;0.20;0.20;;;8.30;99.90;;;;;;5032092;28;20032;-76
2022/11/04 06:27:07;;;;;;;0.13;0.13;;;8.30;99.90;;;;;;5014493;28;20030;-76
2022/11/04 06:29:35;;;;;;;0.17;0.17;;;8.50;99.90;;;;;;5029287;28;20018;-76
2022/11/04 06:32:01;;;;;;;0.30;0.30;;;8.60;99.90;;;;;;5014267;28;20048;-76
2022/11/04 06:34:29;;;;;;;0.20;0.20;;;8.50;99.90;;;;;;5031778;28;20493;-76
2022/11/04 06:36:55;;;;;;;0.20;0.20;;;8.50;99.90;;;;;;5012293;28;20052;-77
2022/11/04 06:39:21;;;;;;;0.10;0.10;;;8.40;99.90;;;;;;5026504;28;20026;-76
2022/11/04 06:41:46;;;;;;;0.20;0.20;;;8.30;99.90;;;;;;5032006;28;20547;-76
2022/11/04 06:44:12;;;;;;;0.20;0.20;;;8.40;99.90;;;;;;5031589;28;20022;-76
2022/11/04 06:46:42;;;;;;;0.50;0.50;;;8.40;99.90;;;;;;5031330;28;20028;-76
2022/11/04 06:49:19;;;;;;;0.20;0.20;;;8.40;99.90;;;;;;5031689;28;20028;-77
2022/11/04 06:51:46;;;;;;;0.20;0.20;;;8.60;99.90;;;;;;5030903;28;20029;-76
2022/11/04 06:54:12;;;;;;;0.85;0.85;;;8.60;99.90;;;;;;5021344;28;20429;-76
2022/11/04 06:56:38;;;;;;;0.10;0.10;;;8.60;99.90;;;;;;5013616;28;20032;-76
2022/11/04 06:59:05;;;;;;;0.10;0.10;;;8.80;99.90;;;;;;5031527;28;20037;-76
2022/11/04 07:01:33;;;;;;;0.30;0.30;;;8.90;99.90;;;;;;5032010;28;20032;-76
2022/11/04 07:04:00;;;;;;;0.10;0.10;;;8.90;99.90;;;;;;5030194;28;20025;-75
2022/11/04 07:06:28;;;;;;;0.20;0.20;;;8.90;99.90;;;;;;5013557;28;20090;-77
2022/11/04 07:08:57;;;;;;;0.15;0.15;;;8.90;99.90;;;;;;5031667;28;20029;-77
2022/11/04 07:11:24;;;;;;;0.10;0.10;;;8.80;99.90;;;;;;5031198;28;20031;-77
2022/11/04 07:13:51;;;;;;;0.15;0.15;;;8.80;99.90;;;;;;5031889;28;20021;-75
2022/11/04 07:16:17;;;;;;;1.30;0.47;;;8.90;99.90;;;;;;5013851;28;20452;-75
2022/11/04 07:18:43;;;;;;;1.48;0.60;;;8.80;99.90;;;;;;5031198;28;20112;-76
2022/11/04 07:21:10;;;;;;;1.30;0.65;;;8.50;99.90;;;;;;5011276;28;20038;-75
2022/11/04 07:23:36;;;;;;;0.28;0.28;;;8.20;99.90;;;;;;5031913;28;20029;-76
2022/11/04 07:26:04;;;;;;;2.72;0.73;;;8.20;99.90;;;;;;5031061;28;20026;-75
2022/11/04 07:28:29;;;;;;;0.40;0.40;;;8.00;99.90;;;;;;5045083;28;20123;-75
2022/11/04 07:30:57;;;;;;;0.40;0.40;;;8.00;99.90;;;;;;5029589;28;20052;-75
2022/11/04 07:33:24;;;;;;;0.45;0.45;;;8.00;99.90;;;;;;5006755;28;20037;-75
2022/11/04 07:35:50;;;;;;;0.47;0.35;;;8.00;99.90;;;;;;5031122;28;20389;-76
2022/11/04 07:38:16;;;;;;;0.15;0.15;;;8.10;99.90;;;;;;5030406;28;20029;-75
2022/11/04 07:40:42;;;;;;;0.20;0.20;;;8.20;99.90;;;;;;5021528;28;20116;-77
2022/11/04 07:43:07;;;;;;;0.10;0.10;;;8.20;99.90;;;;;;5009903;28;20036;-76
2022/11/04 07:45:33;;;;;;;0.10;0.10;;;8.20;99.90;;;;;;5009226;28;20029;-76
2022/11/04 07:47:59;;;;;;;0.10;0.10;;;8.20;99.90;;;;;;5023753;28;20099;-76
2022/11/04 07:50:25;;;;;;;0.40;0.38;;;8.30;99.90;;;;;;5012911;28;20064;-76
2022/11/04 07:52:50;;;;;;;0.80;0.50;;;8.20;99.90;;;;;;5023433;28;20025;-75
2022/11/04 07:55:17;;;;;;;0.20;0.20;;;8.20;99.90;;;;;;5013283;28;20042;-77
2022/11/04 07:57:46;;;;;;;0.20;0.20;;;8.20;99.90;;;;;;5013647;28;20596;-76
2022/11/04 08:00:16;;;;;;;0.13;0.13;;;8.30;99.90;;;;;;5012262;28;20120;-76
2022/11/04 08:02:45;;;;;;;0.63;0.60;;;8.30;99.90;;;;;;5023899;28;20041;-76
2022/11/04 08:05:12;;;;;;;0.17;0.17;;;8.40;99.90;;;;;;5012806;28;20841;-76
2022/11/04 08:07:38;;;;;;;0.20;0.20;;;8.30;99.90;;;;;;4994668;28;20034;-75
2022/11/04 08:10:05;;;;;;;0.20;0.20;;;8.30;99.90;;;;;;5013835;28;20134;-76
2022/11/04 08:12:31;;;;;;;0.20;0.20;;;8.40;99.90;;;;;;5022979;28;20147;-76
2022/11/04 08:14:58;;;;;;;0.30;0.30;;;8.30;99.90;;;;;;5022595;28;20503;-76
2022/11/04 08:17:24;;;;;;;0.40;0.40;;;8.40;99.90;;;;;;5013588;28;20034;-76
2022/11/04 08:19:50;;;;;;;0.20;0.20;;;8.30;99.90;;;;;;4997291;28;20037;-76
2022/11/04 08:22:15;;;;;;;0.20;0.20;;;8.30;99.90;;;;;;5021981;28;20085;-76
2022/11/04 08:24:41;;;;;;;0.20;0.20;;;8.20;99.90;;;;;;5022349;28;20088;-77
2022/11/04 08:27:07;;;;;;;0.10;0.10;;;8.10;99.90;;;;;;5012021;28;20021;-80
2022/11/04 08:29:34;;;;;;;0.20;0.20;;;8.00;99.90;;;;;;5012410;28;20033;-77
2022/11/04 08:31:59;;;;;;;0.20;0.20;;;8.00;99.90;;;;;;5011410;28;20463;-77
2022/11/04 08:34:25;;;;;;;0.20;0.20;;;8.00;99.90;;;;;;5013606;28;20129;-78
2022/11/04 08:36:56;;;;;;;0.20;0.20;;;7.90;99.90;;;;;;4995593;28;20033;-77
2022/11/04 08:39:23;;;;;;;0.20;0.20;;;7.70;99.90;;;;;;5012777;28;20057;-77
2022/11/04 08:41:49;;;;;;;0.30;0.30;;;7.80;99.90;;;;;;5009857;28;20565;-78
2022/11/04 08:44:15;;;;;;;0.55;0.40;;;7.70;99.90;;;;;;5022895;28;20036;-77
2022/11/04 08:46:43;;;;;;;0.63;0.45;;;7.70;99.90;;;;;;5012822;28;20033;-77
2022/11/04 08:49:09;;;;;;;0.20;0.20;;;7.60;99.90;;;;;;5022590;28;20044;-78
2022/11/04 08:51:42;;;;;;;0.10;0.10;;;7.60;99.90;;;;;;5012768;28;20048;-80
2022/11/04 08:54:09;;;;;;;0.40;0.40;;;7.60;99.90;;;;;;5013131;28;20033;-78
2022/11/04 08:56:37;;;;;;;1.10;0.47;;;7.50;99.90;;;;;;5022536;28;20035;-76
2022/11/04 08:59:03;;;;;;;0.45;0.45;;;7.30;99.90;;;;;;5023044;28;20058;-76
2022/11/04 09:01:32;;;;;;;0.10;0.10;;;7.40;99.90;;;;;;5012442;28;20038;-76
2022/11/04 09:03:58;;;;;;;0.20;0.20;;;7.40;99.90;;;;;;5012353;28;20030;-77
2022/11/04 09:06:30;;;;;;;0.20;0.20;;;7.40;99.90;;;;;;5022468;28;20052;-77
2022/11/04 09:09:02;;;;;;;0.20;0.20;;;7.50;99.90;;;;;;5012330;28;20401;-77
2022/11/04 09:11:29;;;;;;;0.32;0.32;;;7.60;99.90;;;;;;5012895;28;20417;-77
2022/11/04 09:13:58;;;;;;;0.40;0.40;;;7.80;99.90;;;;;;5022887;28;20026;-76
2022/11/04 09:16:24;;;;;;;0.30;0.30;;;8.10;99.90;;;;;;5020740;28;20037;-76
2022/11/04 09:18:49;;;;;;;0.20;0.20;;;8.20;99.90;;;;;;5012235;28;20128;-76
2022/11/04 09:21:15;;;;;;;0.13;0.13;;;8.40;99.90;;;;;;5021259;28;20048;-77
2022/11/04 09:23:41;;;;;;;0.30;0.30;;;8.50;99.90;;;;;;5022547;28;20100;-77
2022/11/04 09:26:13;;;;;;;0.20;0.20;;;8.60;99.90;;;;;;5011547;28;20159;-77
2022/11/04 09:28:39;;;;;;;0.20;0.20;;;8.60;99.90;;;;;;4995592;28;20087;-78
2022/11/04 09:31:14;;;;;;;0.43;0.43;;;8.60;99.90;;;;;;5025497;28;20029;-77
2022/11/04 09:33:40;;;;;;;3.90;3.70;;;8.70;99.90;;;;;;5025278;28;20021;-76
2022/11/04 09:36:08;;;;;;;0.20;0.20;;;8.60;99.90;;;;;;5026264;28;20087;-76
2022/11/04 09:38:34;;;;;;;0.20;0.20;;;8.70;99.90;;;;;;5022075;28;20041;-76
2022/11/04 09:41:00;;;;;;;0.20;0.20;;;8.80;99.90;;;;;;5021800;28;20044;-76
2022/11/04 09:43:40;;;;;;;0.20;0.20;;;8.60;99.90;;;;;;4995619;28;20029;-76
2022/11/04 09:46:10;;;;;;;0.20;0.20;;;8.80;99.90;;;;;;5013048;28;20538;-76
2022/11/04 09:48:38;;;;;;;0.20;0.20;;;8.80;99.90;;;;;;5026069;28;20025;-76
2022/11/04 09:51:06;;;;;;;0.45;0.45;;;8.70;99.90;;;;;;5015628;28;20498;-76
2022/11/04 09:53:42;;;;;;;0.20;0.20;;;8.90;99.90;;;;;;5025884;28;20029;-76
2022/11/04 09:56:30;;;;;;;0.15;0.15;;;8.90;99.90;;;;;;5017890;28;20036;-76
2022/11/04 09:58:56;;;;;;;4.50;0.45;;;8.80;99.90;;;;;;5017668;28;20481;-76
2022/11/04 10:01:51;;;;;;;0.20;0.20;;;8.80;99.90;;;;;;5013651;28;20084;-76
2022/11/04 10:04:32;;;;;;;0.20;0.20;;;8.90;99.90;;;;;;5025325;28;20033;-76
2022/11/04 10:07:36;;;;;;;0.10;0.10;;;8.90;99.90;;;;;;5013943;28;20109;-76
2022/11/04 10:10:08;;;;;;;0.20;0.20;;;8.70;99.90;;;;;;5020650;28;20120;-76
2022/11/04 10:12:45;;;;;;;0.20;0.20;;;8.60;99.90;;;;;;5013824;28;20111;-76
2022/11/04 10:15:35;;;;;;;0.17;0.17;;;8.50;99.90;;;;;;4999115;28;20037;-75
2022/11/04 10:18:16;;;;;;;0.20;0.20;;;8.60;99.90;;;;;;4999714;28;20120;-76
2022/11/04 10:20:47;;;;;;;0.25;0.25;;;8.30;99.90;;;;;;5014683;28;20156;-76
2022/11/04 10:23:31;;;;;;;0.20;0.20;;;8.00;99.90;;;;;;5023944;28;20028;-76
2022/11/04 10:26:16;;;;;;;0.20;0.20;;;8.00;99.90;;;;;;5024859;28;20148;-76
2022/11/04 10:28:48;;;;;;;0.10;0.10;;;7.90;99.90;;;;;;5012916;28;20026;-75
2022/11/04 10:31:17;;;;;;;0.20;0.20;;;8.10;99.90;;;;;;5015569;28;20036;-75
2022/11/04 10:33:57;;;;;;;0.20;0.20;;;8.40;99.90;;;;;;5015999;28;20378;-76
2022/11/04 10:36:24;;;;;;;0.25;0.25;;;8.50;99.90;;;;;;5014174;28;20499;-75
2022/11/04 10:38:56;;;;;;;0.20;0.20;;;8.30;99.90;;;;;;5025246;28;20080;-75
2022/11/04 10:41:33;;;;;;;0.10;0.10;;;8.20;99.90;;;;;;4999584;28;20128;-75
2022/11/04 10:44:13;;;;;;;0.20;0.20;;;8.10;99.90;;;;;;5023973;28;20041;-75
2022/11/04 10:47:00;;;;;;;0.20;0.20;;;8.10;99.90;;;;;;5024543;28;20600;-76
2022/11/04 10:49:41;;;;;;;0.63;0.35;;;8.10;99.90;;;;;;5015615;28;20087;-76
2022/11/04 10:52:09;;;;;;;1.45;0.40;;;8.00;99.90;;;;;;5014173;28;20112;-76
2022/11/04 10:54:47;;;;;;;0.17;0.17;;;8.00;99.90;;;;;;5011966;28;20037;-76
2022/11/04 10:57:19;;;;;;;0.20;0.20;;;7.90;99.90;;;;;;5015762;28;20029;-76
2022/11/04 11:00:00;;;;;;;0.22;0.22;;;7.90;99.90;;;;;;4999388;28;20056;-76
2022/11/04 11:02:42;;;;;;;0.20;0.20;;;7.70;99.90;;;;;;5024708;28;20033;-76
2022/11/04 11:05:10;;;;;;;;;;;7.80;99.90;;;;;;5021563;28;20337;-77
2022/11/04 11:07:36;;;;;;;1.20;1.10;;;7.80;99.90;;;;;;5020333;28;19956;-76
2022/11/04 11:10:02;;;;;;;0.80;0.20;;;7.80;99.90;;;;;;4994085;28;20557;-77
2022/11/04 11:12:39;;;;;;;0.30;0.30;;;7.50;99.90;;;;;;4994323;28;20025;-76
2022/11/04 11:15:35;;;;;;;1.42;0.35;;;7.50;99.90;;;;;;5021403;28;20044;-77
2022/11/04 11:18:07;;;;;;;0.85;0.63;;;7.50;99.90;;;;;;4993869;28;20040;-77
2022/11/04 11:20:36;;;;;;;0.45;0.43;;;7.40;99.90;;;;;;5025007;28;20116;-77
2022/11/04 11:23:08;;;;;;;0.63;0.63;;;7.30;99.90;;;;;;5014165;28;20026;-77
2022/11/04 11:25:48;;;;;;;0.30;0.30;;;7.40;99.90;;;;;;5023365;28;20025;-77
2022/11/04 11:28:23;;;;;;;0.20;0.20;;;7.30;99.90;;;;;;5015422;28;20037;-77
2022/11/04 11:30:59;;;;;;;0.30;0.30;;;7.40;99.90;;;;;;5024195;28;20033;-76
2022/11/04 11:33:31;;;;;;;0.57;0.57;;;7.30;99.90;;;;;;5015306;28;20952;-77
2022/11/04 11:36:11;;;;;;;0.17;0.17;;;7.00;99.90;;;;;;5024216;28;20026;-76
2022/11/04 11:38:50;;;;;;;0.20;0.20;;;7.00;99.90;;;;;;5013075;28;20037;-77
2022/11/04 11:41:17;;;;;;;0.20;0.20;;;6.80;99.90;;;;;;5013486;28;20061;-76
2022/11/04 11:43:48;;;;;;;0.30;0.30;;;6.80;99.90;;;;;;5023093;28;20198;-76
2022/11/04 11:46:24;;;;;;;0.30;0.30;;;6.70;99.90;;;;;;5012988;28;20117;-77
2022/11/04 11:48:53;;;;;;;0.20;0.20;;;6.60;99.90;;;;;;4997115;28;20037;-77
2022/11/04 11:51:38;;;;;;;0.20;0.20;;;6.70;99.90;;;;;;5014016;28;20035;-77
2022/11/04 11:54:32;;;;;;;0.47;0.47;;;6.80;99.90;;;;;;5011088;28;20030;-78
2022/11/04 11:57:09;;;;;;;0.10;0.10;;;6.90;99.90;;;;;;5022986;28;20065;-77
2022/11/04 11:59:43;;;;;;;0.40;0.40;;;6.90;99.90;;;;;;5023727;28;20030;-77
2022/11/04 12:02:17;;;;;;;0.20;0.20;;;7.00;99.90;;;;;;5023585;28;20034;-76
2022/11/04 12:04:44;;;;;;;0.20;0.20;;;7.00;99.90;;;;;;5023136;28;20025;-77
2022/11/04 12:07:48;;;;;;;0.20;0.20;;;7.00;99.90;;;;;;5014167;28;20037;-77
2022/11/04 12:10:39;;;;;;;0.20;0.20;;;7.00;99.90;;;;;;5022557;28;20093;-76
2022/11/04 12:13:23;;;;;;;0.25;0.25;;;7.00;99.90;;;;;;5024038;28;20083;-78
2022/11/04 12:16:17;;;;;;;0.20;0.20;;;7.10;99.90;;;;;;5013895;28;20402;-77
2022/11/04 12:19:06;;;;;;;0.20;0.20;;;7.50;99.90;;;;;;5023146;28;20037;-78
2022/11/04 12:21:39;;;;;;;0.20;0.20;;;7.50;99.90;;;;;;5012162;28;20576;-76
2022/11/04 12:24:26;;;;;;;0.20;0.20;;;7.40;99.90;;;;;;5022550;28;20488;-78
2022/11/04 12:26:58;;;;;;;0.20;0.20;;;7.50;99.90;;;;;;5022481;28;20540;-78
2022/11/04 12:29:43;;;;;;;;;;;7.50;99.90;;;;;;5012149;28;20048;-77
2022/11/04 12:32:22;;;;;;;0.20;0.20;;;7.60;99.90;;;;;;5011909;28;19967;-77
2022/11/04 12:34:48;;;;;;;0.25;0.25;;;7.70;99.90;;;;;;5023067;28;20056;-78
2022/11/04 12:37:20;;;;;;;0.20;0.20;;;7.80;99.90;;;;;;5013669;28;20033;-78
2022/11/04 12:40:03;;;;;;;0.20;0.20;;;8.00;99.90;;;;;;5022215;28;20037;-77
2022/11/04 12:43:00;;;;;;;0.30;0.30;;;8.00;99.90;;;;;;5011300;28;20738;-77
2022/11/04 12:45:35;;;;;;;0.20;0.20;;;7.90;99.90;;;;;;5013700;28;20025;-78
2022/11/04 12:48:08;;;;;;;0.22;0.22;;;8.00;99.90;;;;;;5013275;28;20128;-77
2022/11/04 12:50:44;;;;;;;0.20;0.20;;;8.20;99.90;;;;;;5023507;28;20802;-77
2022/11/04 12:53:40;;;;;;;0.20;0.20;;;8.00;99.90;;;;;;5014434;28;20903;-77
2022/11/04 12:56:23;;;;;;;0.20;0.20;;;7.80;99.90;;;;;;5012667;28;20029;-77
2022/11/04 12:59:15;;;;;;;0.20;0.20;;;7.90;99.90;;;;;;5015357;28;20040;-78
2022/11/04 13:01:49;;;;;;;0.17;0.17;;;8.10;99.90;;;;;;5011325;28;20034;-77
2022/11/04 13:04:24;;;;;;;0.30;0.30;;;8.40;99.90;;;;;;5023209;28;20682;-77
2022/11/04 13:06:59;;;;;;;0.20;0.20;;;8.60;99.90;;;;;;5012930;28;20041;-77
2022/11/04 13:09:41;;;;;;;0.20;0.20;;;8.70;99.90;;;;;;4996538;28;20061;-77
2022/11/04 13:12:18;;;;;;;0.10;0.10;;;8.70;99.90;;;;;;5022968;28;20033;-78
2022/11/04 13:14:47;;;;;;;0.20;0.20;;;8.50;99.90;;;;;;5022745;28;20029;-76
2022/11/04 13:17:17;;;;;;;0.30;0.30;;;8.50;99.90;;;;;;5011645;28;20025;-77
2022/11/04 13:19:53;;;;;;;0.20;0.20;;;8.50;99.90;;;;;;5021951;28;20052;-76
2022/11/04 13:22:29;;;;;;;0.20;0.20;;;8.40;99.90;;;;;;5022357;28;20061;-76
2022/11/04 13:25:02;;;;;;;0.20;0.20;;;8.20;99.90;;;;;;5011690;28;20409;-77
2022/11/04 13:27:36;;;;;;;0.20;0.20;;;8.10;99.90;;;;;;5022272;28;20514;-77
2022/11/04 13:30:24;;;;;;;0.20;0.20;;;8.00;99.90;;;;;;5012126;28;20227;-78
2022/11/04 13:32:56;;;;;;;0.20;0.20;;;7.80;99.90;;;;;;5010990;28;20061;-75
2022/11/04 13:35:39;;;;;;;0.20;0.20;;;8.00;99.90;;;;;;5010439;28;20079;-76
2022/11/04 13:38:11;;;;;;;0.10;0.10;;;7.90;99.90;;;;;;5021874;28;20029;-77
2022/11/04 13:40:46;;;;;;;0.20;0.20;;;8.00;99.90;;;;;;5021005;28;20022;-78
2022/11/04 13:43:38;;;;;;;0.20;0.20;;;8.10;99.90;;;;;;5012563;28;20033;-79
2022/11/04 13:46:29;;;;;;;0.20;0.20;;;8.00;99.90;;;;;;4994087;28;20086;-78
2022/11/04 13:49:05;;;;;;;0.40;0.40;;;8.00;99.90;;;;;;5011663;28;20038;-77
2022/11/04 13:51:40;;;;;;;0.20;0.20;;;8.00;99.90;;;;;;5021223;28;20033;-77
2022/11/04 13:54:22;;;;;;;0.20;0.20;;;7.90;99.90;;;;;;5012971;28;20421;-76
2022/11/04 13:56:48;;;;;;;0.10;0.10;;;7.80;99.90;;;;;;5011894;28;20068;-76